Date,TemperatureHighF,TemperatureAvgF,TemperatureLowF,DewpointHighF,DewpointAvgF,DewpointLowF,HumidityHigh,HumidityAvg,HumidityLow,PressureMaxIn,PressureMinIn,WindSpeedMaxMPH,WindSpeedAvgMPH,GustSpeedMaxMPH,PrecipitationSumIn
2013-1-1,37.8,32.9,22.7,28.3,20.5,9.4,72,60,50,29.85,29.68,11,6,30,0.00
2013-1-2,32.6,23.8,17.4,15.5,11.2,6.9,71,58,48,30.03,29.83,10,5,26,0.00
2013-1-3,27.2,18.9,9.4,14.6,4.2,-3.6,65,53,29,30.08,29.93,11,4,23,0.00
2013-1-4,41.2,32.2,24.0,25.5,21.4,14.6,75,64,48,29.93,29.76,9,4,19,0.00
2013-1-5,44.4,35.1,26.3,25.5,22.4,19.6,85,60,41,30.19,29.81,10,3,25,0.00
2013-1-6,45.4,35.2,26.8,34.7,30.1,23.0,97,82,61,30.14,29.85,6,1,12,0.00
2013-1-7,43.4,35.5,27.3,31.9,27.4,20.3,94,73,48,30.32,29.89,9,2,18,0.00
2013-1-8,49.7,38.0,24.3,34.5,31.2,23.6,98,78,50,30.30,30.21,8,4,18,0.00
2013-1-9,45.9,38.5,25.5,40.3,34.4,25.4,100,85,71,30.31,29.94,11,3,22,0.00
2013-1-10,47.9,42.2,33.3,35.5,26.1,23.4,74,53,40,30.45,30.01,16,6,36,0.00
2013-1-11,40.1,35.1,26.7,39.4,29.8,23.5,98,81,65,30.45,30.12,6,1,12,0.00
2013-1-12,45.3,41.8,39.3,44.3,41.6,39.3,100,99,95,30.13,30.04,4,0,11,0.00
2013-1-13,50.8,45.6,42.2,49.6,45.4,42.2,100,99,94,30.09,29.96,10,3,17,0.00
2013-1-14,62.7,51.3,40.8,56.4,44.7,31.5,100,80,50,30.18,29.85,11,5,22,0.00
2013-1-15,42.5,38.4,36.0,36.1,31.6,27.6,95,76,62,30.23,30.14,6,1,11,0.00
2013-1-16,36.2,33.7,31.5,35.0,32.5,27.9,100,96,71,30.16,29.72,7,1,14,0.00
2013-1-17,45.0,37.5,32.7,34.5,29.5,20.8,97,74,54,30.00,29.79,8,3,20,0.00
2013-1-18,33.1,25.7,22.6,20.2,6.4,-2.4,66,43,28,30.41,29.94,13,6,24,0.00
2013-1-19,49.6,39.6,25.7,36.2,28.5,11.0,79,65,45,30.34,29.85,14,8,29,0.00
2013-1-20,56.3,44.5,29.8,38.4,29.6,9.8,81,57,34,29.87,29.51,14,9,33,0.00
2013-1-21,32.7,26.9,22.1,24.1,13.6,7.1,94,60,37,30.03,29.72,10,3,20,0.00
2013-1-22,24.9,21.5,14.3,23.5,7.4,-3.1,95,58,32,30.02,29.68,12,7,25,0.00
2013-1-23,16.8,12.3,9.1,4.2,-4.5,-9.9,68,46,36,30.09,30.01,12,8,25,0.00
2013-1-24,20.6,12.6,5.4,-3.4,-6.4,-8.3,56,42,29,30.17,30.01,13,8,28,0.00
2013-1-25,25.7,17.4,10.0,15.0,-2.5,-8.0,88,42,26,30.24,29.98,11,4,24,0.00
2013-1-26,26.4,18.6,12.8,14.8,7.2,-2.4,93,63,36,30.18,29.93,12,6,28,0.00
2013-1-27,31.4,22.3,13.5,6.6,3.6,0.3,63,45,31,30.39,30.18,10,6,22,0.00
2013-1-28,32.5,27.9,21.5,31.3,17.2,2.1,99,67,36,30.38,29.93,6,1,11,0.00
2013-1-29,35.9,32.1,28.6,34.8,31.5,27.8,100,97,93,30.12,29.92,5,1,10,0.00
2013-1-30,55.7,48.1,33.9,55.5,47.9,33.9,100,99,95,30.08,29.44,16,8,31,0.00
2013-1-31,58.2,48.2,32.0,56.5,36.6,13.6,100,67,35,29.56,28.96,30,14,52,0.00